createdAt,value
2019-02-25T00:00:33.232Z,44.60
2019-02-25T00:03:01.505Z,46.10
2019-02-25T00:05:29.750Z,47.30
2019-02-25T00:07:58.039Z,46.90
2019-02-25T00:10:26.286Z,48.10
2019-02-25T00:12:54.521Z,46.70
2019-02-25T00:15:22.760Z,46.90
2019-02-25T00:17:50.979Z,47.40
2019-02-25T00:20:19.220Z,48.10
2019-02-25T00:22:47.447Z,48.20
2019-02-25T00:25:15.679Z,48.20
2019-02-25T00:27:43.990Z,47.50
2019-02-25T00:30:13.688Z,47.20
2019-02-25T00:32:41.936Z,46.70
2019-02-25T00:35:10.147Z,45.80
2019-02-25T00:37:38.372Z,45.30
2019-02-25T00:40:08.853Z,45.00
2019-02-25T00:42:37.099Z,46.70
2019-02-25T00:45:08.566Z,47.50
2019-02-25T00:47:36.930Z,47.60
2019-02-25T00:50:11.306Z,47.60
2019-02-25T00:52:39.628Z,47.50
2019-02-25T00:55:08.721Z,46.90
2019-02-25T00:57:36.947Z,47.90
2019-02-25T01:00:08.445Z,47.80
2019-02-25T01:02:36.684Z,47.60
2019-02-25T01:05:05.753Z,47.60
2019-02-25T01:07:34.008Z,47.60
2019-02-25T01:10:02.253Z,47.90
2019-02-25T01:12:30.479Z,48.60
2019-02-25T01:14:58.702Z,48.70
2019-02-25T01:17:26.943Z,48.70
2019-02-25T01:19:55.185Z,47.70
2019-02-25T01:22:23.423Z,47.80
2019-02-25T01:24:51.671Z,48.90
2019-02-25T01:27:19.902Z,49.40
2019-02-25T01:29:48.130Z,47.70
2019-02-25T01:32:16.364Z,46.00
2019-02-25T01:34:44.624Z,45.50
2019-02-25T01:37:12.893Z,46.80
2019-02-25T01:39:41.181Z,47.90
2019-02-25T01:42:09.409Z,48.60
2019-02-25T01:44:37.671Z,48.10
2019-02-25T01:47:05.887Z,48.40
2019-02-25T01:49:34.109Z,49.00
2019-02-25T01:52:02.348Z,49.10
2019-02-25T01:54:30.568Z,49.70
2019-02-25T01:56:58.825Z,50.00
2019-02-25T01:59:27.056Z,49.80
2019-02-25T02:01:55.277Z,49.60
2019-02-25T02:04:23.520Z,48.70
2019-02-25T02:06:51.771Z,48.70
2019-02-25T02:09:20.008Z,48.10
2019-02-25T02:11:48.227Z,48.60
2019-02-25T02:14:16.467Z,48.50
2019-02-25T02:16:44.686Z,48.90
2019-02-25T02:19:12.916Z,49.70
2019-02-25T02:21:41.149Z,50.00
2019-02-25T02:24:09.407Z,48.70
2019-02-25T02:26:37.630Z,49.40
2019-02-25T02:29:05.880Z,49.10
2019-02-25T02:31:34.168Z,49.10
2019-02-25T02:34:02.440Z,49.10
2019-02-25T02:36:30.704Z,50.00
2019-02-25T02:38:59.027Z,50.10
2019-02-25T02:41:27.280Z,50.80
2019-02-25T02:43:55.503Z,51.10
2019-02-25T02:46:29.639Z,51.70
2019-02-25T02:49:01.137Z,52.80
2019-02-25T02:51:29.390Z,52.30
2019-02-25T02:53:57.630Z,52.80
2019-02-25T02:56:25.872Z,52.40
2019-02-25T02:58:54.083Z,52.90
2019-02-25T03:01:22.340Z,53.50
2019-02-25T03:03:50.565Z,53.20
2019-02-25T03:06:18.811Z,52.30
2019-02-25T03:08:47.047Z,52.50
2019-02-25T03:11:15.270Z,52.30
2019-02-25T03:13:43.540Z,52.30
2019-02-25T03:16:11.755Z,52.80
2019-02-25T03:18:40.041Z,52.30
2019-02-25T03:21:08.249Z,51.70
2019-02-25T03:23:36.497Z,52.40
2019-02-25T03:26:04.725Z,53.00
2019-02-25T03:28:32.952Z,53.30
2019-02-25T03:31:01.207Z,53.20
2019-02-25T03:33:29.470Z,53.40
2019-02-25T03:35:57.769Z,54.50
2019-02-25T03:38:26.014Z,55.00
2019-02-25T03:40:54.255Z,54.40
2019-02-25T03:43:22.483Z,55.10
2019-02-25T03:45:50.727Z,54.50
2019-02-25T03:48:18.979Z,54.70
2019-02-25T03:50:47.216Z,54.80
2019-02-25T03:53:15.431Z,55.10
2019-02-25T03:55:43.664Z,54.60
2019-02-25T03:58:11.913Z,53.80
2019-02-25T04:00:40.123Z,54.20
2019-02-25T04:03:08.381Z,53.80
2019-02-25T04:05:36.598Z,53.70
2019-02-25T04:08:04.830Z,54.00
2019-02-25T04:10:33.147Z,54.70
2019-02-25T04:13:01.401Z,55.30
2019-02-25T04:15:33.915Z,55.10
2019-02-25T04:18:02.163Z,55.40
2019-02-25T04:20:30.396Z,56.00
2019-02-25T04:22:58.656Z,56.70
2019-02-25T04:25:26.964Z,56.90
2019-02-25T04:27:55.202Z,56.90
2019-02-25T04:30:23.457Z,57.30
2019-02-25T04:32:51.666Z,56.80
2019-02-25T04:35:19.911Z,56.60
2019-02-25T04:37:48.135Z,56.40
2019-02-25T04:40:16.381Z,56.10
2019-02-25T04:42:44.598Z,56.40
2019-02-25T04:45:20.270Z,56.50
2019-02-25T04:47:48.597Z,56.70
2019-02-25T04:50:16.866Z,57.00
2019-02-25T04:52:45.111Z,57.70
2019-02-25T04:55:14.374Z,58.00
2019-02-25T04:57:42.616Z,58.20
2019-02-25T05:00:16.727Z,58.00
2019-02-25T05:02:44.970Z,56.70
2019-02-25T05:05:13.193Z,55.70
2019-02-25T05:07:41.432Z,55.00
2019-02-25T05:10:12.304Z,55.60
2019-02-25T05:12:42.176Z,56.70
2019-02-25T05:15:12.115Z,57.40
2019-02-25T05:17:40.344Z,57.50
2019-02-25T05:20:08.847Z,57.00
2019-02-25T05:22:37.681Z,56.70
2019-02-25T05:25:10.873Z,57.30
2019-02-25T05:27:39.093Z,57.90
2019-02-25T05:30:10.601Z,58.10
2019-02-25T05:32:38.859Z,58.20
2019-02-25T05:35:09.204Z,58.80
2019-02-25T05:37:37.442Z,58.50
2019-02-25T05:40:17.195Z,58.30
2019-02-25T05:42:45.400Z,57.70
2019-02-25T05:45:14.473Z,58.60
2019-02-25T05:47:42.711Z,58.40
2019-02-25T05:50:18.990Z,58.50
2019-02-25T05:52:47.237Z,58.20
2019-02-25T05:55:17.145Z,59.50
2019-02-25T05:57:45.398Z,59.60
2019-02-25T06:00:19.439Z,59.00
2019-02-25T06:02:47.695Z,58.90
2019-02-25T06:05:15.945Z,58.90
2019-02-25T06:07:44.162Z,59.20
2019-02-25T06:10:13.748Z,58.60
2019-02-25T06:12:41.984Z,57.90
2019-02-25T06:15:12.446Z,58.40
2019-02-25T06:17:40.698Z,59.10
2019-02-25T06:20:11.374Z,59.00
2019-02-25T06:22:39.623Z,59.70
2019-02-25T06:25:09.890Z,59.50
2019-02-25T06:27:38.133Z,59.10
2019-02-25T06:30:15.676Z,60.10
2019-02-25T06:32:43.904Z,59.80
2019-02-25T06:35:12.218Z,59.90
2019-02-25T06:37:40.459Z,59.70
2019-02-25T06:40:20.671Z,60.00
2019-02-25T06:42:48.994Z,59.80
2019-02-25T06:45:31.690Z,60.20
2019-02-25T06:47:59.932Z,60.60
2019-02-25T06:50:28.172Z,60.90
2019-02-25T06:52:56.406Z,61.90
2019-02-25T06:55:24.640Z,61.50
2019-02-25T06:57:52.893Z,61.40
2019-02-25T07:00:22.143Z,61.60
2019-02-25T07:02:50.378Z,60.80
2019-02-25T07:05:23.042Z,60.40
2019-02-25T07:07:58.387Z,59.70
2019-02-25T07:10:37.503Z,60.80
2019-02-25T07:13:07.381Z,61.30
2019-02-25T07:15:37.235Z,60.40
2019-02-25T07:18:07.113Z,61.70
2019-02-25T07:20:36.993Z,61.20
2019-02-25T07:23:09.869Z,60.40
2019-02-25T07:25:39.732Z,59.80
2019-02-25T07:28:18.781Z,60.20
2019-02-25T07:30:48.675Z,59.10
2019-02-25T07:33:18.558Z,58.90
2019-02-25T07:35:48.442Z,58.20
2019-02-25T07:38:24.142Z,58.90
2019-02-25T07:40:56.752Z,57.30
2019-02-25T07:43:35.719Z,56.40
2019-02-25T07:46:11.341Z,56.00
2019-02-25T07:48:42.350Z,56.50
2019-02-25T07:51:24.337Z,54.10
2019-02-25T07:53:54.222Z,53.10
2019-02-25T07:56:33.393Z,55.00
2019-02-25T07:59:12.315Z,55.50
2019-02-25T08:01:51.049Z,53.90
2019-02-25T08:04:32.754Z,53.50
2019-02-25T08:07:02.635Z,52.50
2019-02-25T08:09:32.494Z,51.40
2019-02-25T08:12:08.545Z,51.10
2019-02-25T08:14:56.526Z,49.00
2019-02-25T08:17:32.609Z,48.90
2019-02-25T08:20:05.454Z,47.70
2019-02-25T08:22:41.058Z,47.30
2019-02-25T08:25:23.204Z,49.10
2019-02-25T08:27:59.081Z,47.30
2019-02-25T08:30:28.974Z,45.80
2019-02-25T08:33:01.534Z,44.70
2019-02-25T08:35:48.957Z,44.20
2019-02-25T08:38:25.108Z,44.50
2019-02-25T08:41:03.429Z,43.80
2019-02-25T08:43:33.291Z,43.60
2019-02-25T08:46:18.477Z,42.70
2019-02-25T08:48:57.133Z,41.80
2019-02-25T08:51:25.376Z,41.20
2019-02-25T08:53:53.615Z,40.60
2019-02-25T08:56:21.835Z,40.80
2019-02-25T08:58:50.087Z,39.90
2019-02-25T09:01:18.305Z,39.70
2019-02-25T09:03:46.558Z,39.50
2019-02-25T09:06:14.793Z,38.50
2019-02-25T09:08:43.019Z,36.90
2019-02-25T09:11:14.228Z,36.40
2019-02-25T09:13:41.272Z,36.00
2019-02-25T09:16:09.492Z,36.10
2019-02-25T09:18:37.728Z,35.30
2019-02-25T09:21:08.034Z,35.10
2019-02-25T09:23:35.919Z,34.20
2019-02-25T09:26:04.152Z,33.50
2019-02-25T09:28:32.390Z,33.10
2019-02-25T09:31:00.631Z,32.90
2019-02-25T09:33:28.861Z,31.40
2019-02-25T09:35:57.108Z,31.10
2019-02-25T09:38:25.352Z,29.20
2019-02-25T09:40:53.587Z,30.30
2019-02-25T09:43:21.820Z,31.00
2019-02-25T09:45:50.135Z,30.20
2019-02-25T09:48:18.360Z,31.00
2019-02-25T09:50:46.673Z,30.50
2019-02-25T09:53:14.916Z,31.00
2019-02-25T09:55:43.142Z,29.70
2019-02-25T09:58:11.383Z,30.10
2019-02-25T10:00:39.641Z,29.90
2019-02-25T10:03:07.892Z,29.90
2019-02-25T10:05:37.075Z,29.60
2019-02-25T10:08:05.313Z,29.90
2019-02-25T10:10:33.568Z,29.00
2019-02-25T10:13:01.779Z,28.90
2019-02-25T10:15:30.040Z,28.20
2019-02-25T10:17:58.274Z,28.00
2019-02-25T10:20:26.496Z,28.60
2019-02-25T10:22:54.760Z,28.00
2019-02-25T10:25:22.988Z,27.40
2019-02-25T10:27:51.234Z,27.50
2019-02-25T10:30:20.210Z,26.50
2019-02-25T10:32:48.440Z,26.30
2019-02-25T10:35:19.207Z,25.30
2019-02-25T10:37:47.486Z,25.80
2019-02-25T10:40:18.125Z,24.30
2019-02-25T10:42:45.688Z,24.40
2019-02-25T10:45:21.756Z,24.40
2019-02-25T10:47:51.671Z,24.70
2019-02-25T10:50:19.970Z,24.60
2019-02-25T10:52:49.435Z,25.00
2019-02-25T10:55:32.904Z,25.60
2019-02-25T10:58:02.105Z,24.70
2019-02-25T11:00:31.176Z,23.70
2019-02-25T11:02:59.418Z,25.10
2019-02-25T11:05:30.289Z,23.90
2019-02-25T11:07:57.697Z,24.50
2019-02-25T11:10:30.541Z,24.10
2019-02-25T11:12:59.918Z,24.30
2019-02-25T11:15:29.627Z,23.40
2019-02-25T11:17:57.888Z,24.50
2019-02-25T11:20:27.345Z,23.80
2019-02-25T11:22:56.147Z,23.80
2019-02-25T11:25:26.291Z,23.00
2019-02-25T11:27:54.332Z,23.10
2019-02-25T11:30:23.898Z,22.30
2019-02-25T11:32:55.063Z,22.10
2019-02-25T11:35:22.349Z,22.00
2019-02-25T11:37:51.981Z,21.30
2019-02-25T11:40:20.567Z,21.40
2019-02-25T11:42:49.243Z,20.80
2019-02-25T11:45:18.696Z,19.60
2019-02-25T11:47:46.954Z,19.50
2019-02-25T11:50:17.499Z,19.90
2019-02-25T11:52:45.726Z,20.10
2019-02-25T11:55:15.219Z,19.40
2019-02-25T11:57:43.503Z,19.10
2019-02-25T12:00:17.040Z,19.20
2019-02-25T12:02:45.280Z,18.60
2019-02-25T12:05:15.064Z,18.60
2019-02-25T12:07:43.355Z,18.70
2019-02-25T12:10:13.147Z,19.10
2019-02-25T12:12:41.376Z,18.70
2019-02-25T12:15:17.962Z,19.20
2019-02-25T12:17:46.244Z,19.00
2019-02-25T12:20:14.531Z,19.30
2019-02-25T12:22:42.767Z,18.80
2019-02-25T12:25:21.739Z,19.70
2019-02-25T12:27:49.989Z,19.20
2019-02-25T12:30:26.107Z,19.90
2019-02-25T12:32:53.680Z,19.30
2019-02-25T12:35:21.901Z,19.40
2019-02-25T12:37:50.160Z,19.70
2019-02-25T12:40:18.375Z,20.20
2019-02-25T12:42:46.619Z,19.30
2019-02-25T12:45:15.492Z,19.50
2019-02-25T12:47:43.731Z,18.50
2019-02-25T12:50:20.673Z,18.70
2019-02-25T12:52:48.941Z,19.00
2019-02-25T12:55:18.114Z,18.20
2019-02-25T12:57:46.346Z,18.40
2019-02-25T13:00:18.531Z,19.30
2019-02-25T13:02:46.760Z,18.50
2019-02-25T13:05:16.868Z,19.20
2019-02-25T13:07:45.098Z,18.80
2019-02-25T13:10:14.977Z,18.90
2019-02-25T13:12:43.225Z,18.80
2019-02-25T13:15:19.606Z,19.70
2019-02-25T13:17:47.844Z,19.20
2019-02-25T13:20:16.233Z,18.90
2019-02-25T13:22:44.439Z,19.00
2019-02-25T13:25:21.486Z,18.90
2019-02-25T13:27:49.723Z,19.60
2019-02-25T13:30:18.305Z,18.10
2019-02-25T13:32:46.650Z,18.30
2019-02-25T13:35:15.529Z,18.70
2019-02-25T13:37:44.730Z,19.90
2019-02-25T13:40:17.093Z,20.30
2019-02-25T13:42:45.328Z,20.10
2019-02-25T13:45:17.115Z,19.80
2019-02-25T13:47:45.448Z,19.90
2019-02-25T13:50:15.087Z,20.50
2019-02-25T13:52:48.545Z,20.70
2019-02-25T13:55:15.482Z,21.60
2019-02-25T13:57:43.815Z,21.90
2019-02-25T14:00:15.490Z,23.10
2019-02-25T14:02:44.547Z,23.80
2019-02-25T14:05:12.894Z,23.80
2019-02-25T14:07:41.182Z,24.00
2019-02-25T14:10:11.655Z,24.50
2019-02-25T14:12:39.896Z,24.30
2019-02-25T14:15:10.164Z,24.70
2019-02-25T14:17:38.469Z,24.40
2019-02-25T14:20:10.023Z,24.30
2019-02-25T14:22:38.278Z,24.10
2019-02-25T14:25:08.836Z,24.50
2019-02-25T14:27:37.106Z,24.30
2019-02-25T14:30:09.413Z,23.80
2019-02-25T14:32:37.879Z,23.50
2019-02-25T14:35:07.891Z,23.50
2019-02-25T14:37:36.404Z,23.70
2019-02-25T14:40:08.696Z,24.20
2019-02-25T14:42:38.871Z,23.40
2019-02-25T14:45:10.096Z,23.40
2019-02-25T14:47:40.001Z,24.20
2019-02-25T14:50:14.620Z,23.80
2019-02-25T14:52:43.108Z,24.70
2019-02-25T14:55:13.195Z,24.20
2019-02-25T14:57:43.616Z,24.80
2019-02-25T15:00:26.861Z,25.80
2019-02-25T15:02:55.880Z,26.00
2019-02-25T15:05:24.487Z,26.00
2019-02-25T15:07:53.359Z,25.60
2019-02-25T15:10:26.632Z,25.50
2019-02-25T15:12:56.440Z,26.20
2019-02-25T15:15:23.285Z,26.30
2019-02-25T15:17:52.748Z,26.70
2019-02-25T15:20:23.445Z,26.60
2019-02-25T15:22:52.392Z,26.90
2019-02-25T15:25:21.203Z,27.00
2019-02-25T15:27:49.662Z,27.20
2019-02-25T15:30:28.214Z,27.60
2019-02-25T15:32:58.442Z,28.00
2019-02-25T15:35:29.223Z,28.30
2019-02-25T15:37:57.828Z,28.00
2019-02-25T15:40:27.241Z,28.00
2019-02-25T15:43:03.653Z,28.80
2019-02-25T15:45:32.835Z,29.40
2019-02-25T15:48:02.358Z,29.80
2019-02-25T15:50:30.843Z,29.60
2019-02-25T15:53:02.557Z,29.30
2019-02-25T15:55:29.846Z,29.00
2019-02-25T15:57:58.289Z,29.70
2019-02-25T16:00:30.003Z,29.70
2019-02-25T16:02:58.373Z,29.70
2019-02-25T16:05:29.576Z,29.80
2019-02-25T16:07:59.943Z,30.00
2019-02-25T16:10:28.216Z,31.60
2019-02-25T16:12:57.835Z,33.00
2019-02-25T16:15:26.497Z,31.90
2019-02-25T16:17:54.749Z,30.60
2019-02-25T16:20:24.504Z,31.20
2019-02-25T16:22:56.314Z,31.10
2019-02-25T16:25:27.570Z,32.30
2019-02-25T16:27:56.775Z,31.50
2019-02-25T16:30:26.360Z,31.70
2019-02-25T16:32:55.020Z,32.10
2019-02-25T16:35:23.331Z,35.90
2019-02-25T16:37:54.971Z,36.00
2019-02-25T16:40:24.459Z,37.70
2019-02-25T16:42:54.983Z,39.40
2019-02-25T16:45:28.529Z,38.40
2019-02-25T16:47:55.858Z,38.40
2019-02-25T16:50:24.256Z,38.30
2019-02-25T16:52:52.572Z,38.00
2019-02-25T16:55:26.980Z,37.50
2019-02-25T16:57:53.551Z,38.10
2019-02-25T17:00:25.251Z,38.50
2019-02-25T17:02:53.488Z,38.90
2019-02-25T17:05:22.274Z,40.30
2019-02-25T17:07:50.766Z,41.40
2019-02-25T17:10:24.085Z,41.80
2019-02-25T17:12:52.121Z,41.50
2019-02-25T17:15:21.333Z,41.90
2019-02-25T17:17:49.571Z,42.20
2019-02-25T17:20:21.077Z,42.20
2019-02-25T17:22:49.476Z,42.10
2019-02-25T17:25:17.757Z,43.20
2019-02-25T17:27:45.988Z,43.40
2019-02-25T17:30:22.019Z,43.40
2019-02-25T17:32:51.616Z,44.40
2019-02-25T17:35:25.812Z,44.70
2019-02-25T17:37:55.504Z,44.80
2019-02-25T17:40:23.352Z,45.00
2019-02-25T17:42:53.753Z,45.40
2019-02-25T17:45:25.041Z,45.50
2019-02-25T17:47:58.312Z,45.60
2019-02-25T17:50:43.887Z,45.60
2019-02-25T17:53:12.182Z,45.20
2019-02-25T17:55:40.717Z,46.30
2019-02-25T17:58:09.094Z,46.30
2019-02-25T18:00:44.515Z,46.60
2019-02-25T18:03:12.856Z,47.10
2019-02-25T18:05:43.229Z,46.80
2019-02-25T18:08:13.296Z,47.00
2019-02-25T18:10:43.112Z,47.90
2019-02-25T18:13:11.745Z,47.80
2019-02-25T18:15:40.285Z,48.00
2019-02-25T18:18:11.775Z,48.30
2019-02-25T18:20:38.979Z,48.60
2019-02-25T18:23:07.495Z,48.50
2019-02-25T18:25:37.678Z,48.50
2019-02-25T18:28:08.250Z,48.50
2019-02-25T18:30:35.856Z,48.50
2019-02-25T18:33:05.271Z,48.50
2019-02-25T18:35:36.187Z,48.30
2019-02-25T18:38:06.556Z,48.10
2019-02-25T18:40:35.575Z,48.10
2019-02-25T18:43:04.437Z,48.30
2019-02-25T18:45:35.431Z,48.20
2019-02-25T18:48:03.570Z,48.30
2019-02-25T18:50:31.887Z,48.20
2019-02-25T18:53:01.408Z,48.10
2019-02-25T18:55:31.570Z,48.20
2019-02-25T18:57:59.786Z,48.20
2019-02-25T19:00:31.535Z,48.60
2019-02-25T19:03:00.353Z,49.40
2019-02-25T19:05:31.458Z,49.60
2019-02-25T19:07:59.872Z,49.90
2019-02-25T19:10:28.216Z,50.10
2019-02-25T19:12:58.666Z,50.40
2019-02-25T19:15:26.467Z,50.70
2019-02-25T19:17:54.725Z,51.20
2019-02-25T19:20:23.106Z,51.40
2019-02-25T19:22:51.379Z,51.80
2019-02-25T19:25:20.836Z,52.20
2019-02-25T19:27:50.130Z,52.80
2019-02-25T19:30:19.830Z,53.10
2019-02-25T19:32:49.626Z,53.60
2019-02-25T19:35:17.992Z,53.90
2019-02-25T19:37:46.807Z,54.30
2019-02-25T19:40:22.526Z,54.50
2019-02-25T19:42:51.594Z,54.70
2019-02-25T19:45:20.538Z,54.80
2019-02-25T19:47:48.866Z,54.80
2019-02-25T19:50:19.490Z,54.60
2019-02-25T19:52:47.862Z,54.80
2019-02-25T19:55:18.372Z,55.20
2019-02-25T19:57:48.517Z,54.60
2019-02-25T20:00:22.383Z,54.90
2019-02-25T20:02:50.979Z,54.90
2019-02-25T20:05:21.590Z,55.00
2019-02-25T20:07:49.396Z,55.40
2019-02-25T20:10:17.709Z,55.60
2019-02-25T20:12:45.966Z,55.90
2019-02-25T20:15:18.727Z,56.30
2019-02-25T20:17:48.350Z,56.40
2019-02-25T20:20:16.807Z,56.80
2019-02-25T20:22:45.042Z,56.90
2019-02-25T20:25:16.218Z,57.50
2019-02-25T20:27:44.534Z,57.30
2019-02-25T20:30:15.467Z,57.40
2019-02-25T20:32:43.909Z,57.30
2019-02-25T20:35:17.820Z,57.50
2019-02-25T20:37:50.973Z,57.60
2019-02-25T20:40:19.075Z,58.00
2019-02-25T20:42:49.072Z,58.00
2019-02-25T20:45:22.990Z,58.40
2019-02-25T20:47:50.557Z,58.50
2019-02-25T20:50:21.128Z,58.50
2019-02-25T20:52:49.360Z,58.40
2019-02-25T20:55:17.584Z,58.80
2019-02-25T20:57:45.912Z,59.10
2019-02-25T21:00:21.954Z,59.30
2019-02-25T21:02:50.226Z,58.90
2019-02-25T21:05:20.135Z,59.50
2019-02-25T21:07:50.467Z,60.00
2019-02-25T21:10:18.452Z,59.80
2019-02-25T21:12:46.785Z,59.80
2019-02-25T21:15:19.815Z,60.00
2019-02-25T21:17:48.096Z,60.20
2019-02-25T21:20:16.784Z,60.40
2019-02-25T21:22:45.029Z,60.20
2019-02-25T21:25:15.481Z,60.50
2019-02-25T21:27:43.753Z,60.20
2019-02-25T21:30:19.954Z,61.30
2019-02-25T21:32:49.678Z,61.30
2019-02-25T21:35:18.288Z,60.80
2019-02-25T21:37:48.289Z,60.80
2019-02-25T21:40:20.106Z,60.80
2019-02-25T21:42:49.322Z,61.30
2019-02-25T21:45:20.301Z,62.10
2019-02-25T21:47:52.311Z,61.70
2019-02-25T21:50:19.493Z,61.90
2019-02-25T21:52:47.975Z,62.20
2019-02-25T21:55:18.118Z,62.30
2019-02-25T21:57:46.790Z,62.60
2019-02-25T22:00:20.288Z,62.40
2019-02-25T22:02:50.886Z,63.10
2019-02-25T22:05:21.302Z,63.10
2019-02-25T22:07:52.364Z,63.40
2019-02-25T22:10:19.796Z,62.80
2019-02-25T22:12:48.637Z,63.40
2019-02-25T22:15:22.131Z,63.80
2019-02-25T22:17:50.682Z,64.10
2019-02-25T22:20:22.489Z,64.60
2019-02-25T22:22:54.466Z,64.00
2019-02-25T22:25:23.624Z,64.20
2019-02-25T22:27:51.997Z,64.60
2019-02-25T22:30:20.223Z,64.80
2019-02-25T22:32:49.993Z,64.70
2019-02-25T22:35:18.187Z,65.20
2019-02-25T22:37:49.231Z,65.30
2019-02-25T22:40:17.505Z,65.20
2019-02-25T22:42:47.893Z,65.60
2019-02-25T22:45:22.024Z,65.30
2019-02-25T22:47:50.286Z,65.30
2019-02-25T22:50:18.553Z,65.60
2019-02-25T22:52:46.791Z,66.20
2019-02-25T22:55:17.673Z,66.20
2019-02-25T22:57:45.945Z,67.10
2019-02-25T23:00:43.214Z,67.10
2019-02-25T23:03:15.208Z,67.40
2019-02-25T23:05:43.650Z,67.10
2019-02-25T23:08:13.082Z,66.10
2019-02-25T23:10:42.555Z,66.50
2019-02-25T23:13:11.657Z,66.90
2019-02-25T23:15:42.037Z,67.30
2019-02-25T23:18:11.990Z,67.30
2019-02-25T23:20:39.841Z,67.60
2019-02-25T23:23:08.053Z,67.90
2019-02-25T23:25:36.309Z,67.80
2019-02-25T23:28:04.540Z,67.90
2019-02-25T23:30:32.793Z,67.20
2019-02-25T23:33:01.025Z,67.40
2019-02-25T23:35:29.275Z,67.40
2019-02-25T23:37:58.603Z,67.80
2019-02-25T23:40:31.287Z,68.50
2019-02-25T23:42:58.292Z,68.70
2019-02-25T23:45:26.528Z,68.90
2019-02-25T23:47:57.681Z,69.10
2019-02-25T23:50:25.674Z,69.30
2019-02-25T23:52:54.706Z,69.50
2019-02-25T23:55:24.998Z,70.10
2019-02-25T23:57:52.916Z,70.40
